sensor_id;sensor_type;location;lat;lon;timestamp;P1;durP1;ratioP1;P2;durP2;ratioP2
75576;SDS011;64157;50.138;14.544;2022-12-18T00:00:42;40.40;;;16.58;;
75576;SDS011;64157;50.138;14.544;2022-12-18T00:03:09;29.90;;;14.18;;
75576;SDS011;64157;50.138;14.544;2022-12-18T00:05:34;40.58;;;16.63;;
75576;SDS011;64157;50.138;14.544;2022-12-18T00:08:00;44.53;;;18.27;;
75576;SDS011;64157;50.138;14.544;2022-12-18T00:10:26;46.50;;;17.25;;
75576;SDS011;64157;50.138;14.544;2022-12-18T00:12:52;36.85;;;17.80;;
75576;SDS011;64157;50.138;14.544;2022-12-18T00:15:18;46.65;;;17.65;;
75576;SDS011;64157;50.138;14.544;2022-12-18T00:17:44;42.35;;;18.25;;
75576;SDS011;64157;50.138;14.544;2022-12-18T00:20:09;35.50;;;16.98;;
75576;SDS011;64157;50.138;14.544;2022-12-18T00:22:35;55.13;;;22.15;;
75576;SDS011;64157;50.138;14.544;2022-12-18T00:25:00;57.97;;;24.48;;
75576;SDS011;64157;50.138;14.544;2022-12-18T00:27:26;61.95;;;25.65;;
75576;SDS011;64157;50.138;14.544;2022-12-18T00:29:51;40.75;;;21.20;;
75576;SDS011;64157;50.138;14.544;2022-12-18T00:32:17;55.60;;;23.25;;
75576;SDS011;64157;50.138;14.544;2022-12-18T00:34:42;58.83;;;24.90;;
75576;SDS011;64157;50.138;14.544;2022-12-18T00:37:07;52.15;;;19.15;;
75576;SDS011;64157;50.138;14.544;2022-12-18T00:39:33;39.80;;;20.40;;
75576;SDS011;64157;50.138;14.544;2022-12-18T00:41:58;22.00;;;14.52;;
75576;SDS011;64157;50.138;14.544;2022-12-18T00:44:42;56.65;;;20.77;;
75576;SDS011;64157;50.138;14.544;2022-12-18T00:47:07;51.90;;;23.05;;
75576;SDS011;64157;50.138;14.544;2022-12-18T00:49:33;52.97;;;23.08;;
75576;SDS011;64157;50.138;14.544;2022-12-18T00:51:58;44.60;;;19.98;;
75576;SDS011;64157;50.138;14.544;2022-12-18T00:54:24;25.70;;;15.20;;
75576;SDS011;64157;50.138;14.544;2022-12-18T00:56:49;38.30;;;17.17;;
75576;SDS011;64157;50.138;14.544;2022-12-18T00:59:15;51.53;;;24.35;;
75576;SDS011;64157;50.138;14.544;2022-12-18T01:01:41;42.40;;;21.55;;
75576;SDS011;64157;50.138;14.544;2022-12-18T01:04:07;51.83;;;23.60;;
75576;SDS011;64157;50.138;14.544;2022-12-18T01:06:33;71.45;;;29.35;;
75576;SDS011;64157;50.138;14.544;2022-12-18T01:08:58;66.30;;;26.38;;
75576;SDS011;64157;50.138;14.544;2022-12-18T01:11:24;64.70;;;25.35;;
75576;SDS011;64157;50.138;14.544;2022-12-18T01:13:50;69.18;;;31.23;;
75576;SDS011;64157;50.138;14.544;2022-12-18T01:16:17;36.70;;;17.95;;
75576;SDS011;64157;50.138;14.544;2022-12-18T01:18:43;43.65;;;19.13;;
75576;SDS011;64157;50.138;14.544;2022-12-18T01:21:09;37.08;;;19.98;;
75576;SDS011;64157;50.138;14.544;2022-12-18T01:23:36;34.97;;;17.35;;
75576;SDS011;64157;50.138;14.544;2022-12-18T01:26:13;49.85;;;24.52;;
75576;SDS011;64157;50.138;14.544;2022-12-18T01:28:40;29.42;;;17.05;;
75576;SDS011;64157;50.138;14.544;2022-12-18T01:31:13;60.20;;;22.65;;
75576;SDS011;64157;50.138;14.544;2022-12-18T01:33:40;63.72;;;26.13;;
75576;SDS011;64157;50.138;14.544;2022-12-18T01:36:06;45.10;;;23.35;;
75576;SDS011;64157;50.138;14.544;2022-12-18T01:38:32;31.77;;;18.98;;
75576;SDS011;64157;50.138;14.544;2022-12-18T01:41:00;55.50;;;24.60;;
75576;SDS011;64157;50.138;14.544;2022-12-18T01:43:42;24.17;;;14.87;;
75576;SDS011;64157;50.138;14.544;2022-12-18T01:46:13;43.40;;;21.98;;
75576;SDS011;64157;50.138;14.544;2022-12-18T01:48:39;40.20;;;20.85;;
75576;SDS011;64157;50.138;14.544;2022-12-18T01:51:06;18.75;;;13.70;;
75576;SDS011;64157;50.138;14.544;2022-12-18T01:53:34;24.65;;;14.55;;
75576;SDS011;64157;50.138;14.544;2022-12-18T01:56:02;30.42;;;15.25;;
75576;SDS011;64157;50.138;14.544;2022-12-18T01:59:13;21.27;;;12.80;;
75576;SDS011;64157;50.138;14.544;2022-12-18T02:01:14;33.40;;;16.00;;
75576;SDS011;64157;50.138;14.544;2022-12-18T02:03:41;33.20;;;17.85;;
75576;SDS011;64157;50.138;14.544;2022-12-18T02:08:58;60.72;;;25.35;;
75576;SDS011;64157;50.138;14.544;2022-12-18T02:16:59;46.47;;;21.85;;
75576;SDS011;64157;50.138;14.544;2022-12-18T02:19:37;22.77;;;16.73;;
75576;SDS011;64157;50.138;14.544;2022-12-18T02:22:17;32.08;;;17.00;;
75576;SDS011;64157;50.138;14.544;2022-12-18T02:28:05;49.83;;;24.83;;
75576;SDS011;64157;50.138;14.544;2022-12-18T02:30:34;31.42;;;17.23;;
75576;SDS011;64157;50.138;14.544;2022-12-18T02:33:04;33.33;;;17.60;;
75576;SDS011;64157;50.138;14.544;2022-12-18T02:35:31;34.35;;;15.32;;
75576;SDS011;64157;50.138;14.544;2022-12-18T02:37:58;36.85;;;17.33;;
75576;SDS011;64157;50.138;14.544;2022-12-18T02:40:25;37.35;;;16.77;;
75576;SDS011;64157;50.138;14.544;2022-12-18T02:42:52;35.38;;;18.65;;
75576;SDS011;64157;50.138;14.544;2022-12-18T02:45:18;49.45;;;23.13;;
75576;SDS011;64157;50.138;14.544;2022-12-18T02:47:45;34.40;;;19.33;;
75576;SDS011;64157;50.138;14.544;2022-12-18T02:50:23;11.10;;;9.93;;
75576;SDS011;64157;50.138;14.544;2022-12-18T03:01:09;35.05;;;17.38;;
75576;SDS011;64157;50.138;14.544;2022-12-18T03:03:56;33.22;;;17.58;;
75576;SDS011;64157;50.138;14.544;2022-12-18T03:06:32;39.78;;;18.33;;
75576;SDS011;64157;50.138;14.544;2022-12-18T03:09:06;76.88;;;26.55;;
75576;SDS011;64157;50.138;14.544;2022-12-18T03:11:34;78.88;;;25.02;;
75576;SDS011;64157;50.138;14.544;2022-12-18T03:14:23;62.70;;;21.65;;
75576;SDS011;64157;50.138;14.544;2022-12-18T03:16:54;77.13;;;29.00;;
75576;SDS011;64157;50.138;14.544;2022-12-18T03:21:53;36.88;;;18.77;;
75576;SDS011;64157;50.138;14.544;2022-12-18T03:24:21;75.93;;;27.23;;
75576;SDS011;64157;50.138;14.544;2022-12-18T03:26:49;35.80;;;17.15;;
75576;SDS011;64157;50.138;14.544;2022-12-18T03:29:22;66.97;;;25.52;;
75576;SDS011;64157;50.138;14.544;2022-12-18T03:31:53;67.57;;;26.08;;
75576;SDS011;64157;50.138;14.544;2022-12-18T03:34:26;78.43;;;28.05;;
75576;SDS011;64157;50.138;14.544;2022-12-18T03:36:55;38.85;;;19.02;;
75576;SDS011;64157;50.138;14.544;2022-12-18T03:39:21;77.55;;;29.77;;
75576;SDS011;64157;50.138;14.544;2022-12-18T03:41:49;73.47;;;26.77;;
75576;SDS011;64157;50.138;14.544;2022-12-18T03:46:55;72.53;;;30.17;;
75576;SDS011;64157;50.138;14.544;2022-12-18T03:49:44;87.43;;;28.48;;
75576;SDS011;64157;50.138;14.544;2022-12-18T03:55:00;71.68;;;26.80;;
75576;SDS011;64157;50.138;14.544;2022-12-18T03:57:28;83.82;;;31.30;;
75576;SDS011;64157;50.138;14.544;2022-12-18T04:00:02;81.18;;;28.60;;
75576;SDS011;64157;50.138;14.544;2022-12-18T04:02:32;85.43;;;29.00;;
75576;SDS011;64157;50.138;14.544;2022-12-18T04:05:01;82.55;;;29.23;;
75576;SDS011;64157;50.138;14.544;2022-12-18T04:07:29;85.22;;;27.50;;
75576;SDS011;64157;50.138;14.544;2022-12-18T04:09:56;67.93;;;25.13;;
75576;SDS011;64157;50.138;14.544;2022-12-18T04:12:24;44.17;;;19.65;;
75576;SDS011;64157;50.138;14.544;2022-12-18T04:14:51;54.22;;;21.63;;
75576;SDS011;64157;50.138;14.544;2022-12-18T04:17:16;62.13;;;20.65;;
75576;SDS011;64157;50.138;14.544;2022-12-18T04:19:42;68.70;;;25.17;;
75576;SDS011;64157;50.138;14.544;2022-12-18T04:22:09;69.70;;;27.58;;
75576;SDS011;64157;50.138;14.544;2022-12-18T04:24:35;57.55;;;22.08;;
75576;SDS011;64157;50.138;14.544;2022-12-18T04:27:01;64.78;;;26.73;;
75576;SDS011;64157;50.138;14.544;2022-12-18T04:29:27;40.17;;;19.40;;
75576;SDS011;64157;50.138;14.544;2022-12-18T04:31:53;67.35;;;26.45;;
75576;SDS011;64157;50.138;14.544;2022-12-18T04:34:19;63.83;;;24.40;;
75576;SDS011;64157;50.138;14.544;2022-12-18T04:36:45;39.53;;;17.90;;
75576;SDS011;64157;50.138;14.544;2022-12-18T04:39:10;41.97;;;18.58;;
75576;SDS011;64157;50.138;14.544;2022-12-18T04:41:36;58.75;;;23.23;;
75576;SDS011;64157;50.138;14.544;2022-12-18T04:44:01;48.58;;;21.92;;
75576;SDS011;64157;50.138;14.544;2022-12-18T04:46:27;43.22;;;19.38;;
75576;SDS011;64157;50.138;14.544;2022-12-18T04:48:52;44.88;;;16.42;;
75576;SDS011;64157;50.138;14.544;2022-12-18T04:51:18;39.50;;;17.85;;
75576;SDS011;64157;50.138;14.544;2022-12-18T04:53:43;56.05;;;23.02;;
75576;SDS011;64157;50.138;14.544;2022-12-18T04:56:09;50.30;;;21.20;;
75576;SDS011;64157;50.138;14.544;2022-12-18T04:58:37;43.38;;;18.65;;
75576;SDS011;64157;50.138;14.544;2022-12-18T05:01:04;48.17;;;18.23;;
75576;SDS011;64157;50.138;14.544;2022-12-18T05:03:30;48.88;;;17.70;;
75576;SDS011;64157;50.138;14.544;2022-12-18T05:05:56;51.47;;;18.48;;
75576;SDS011;64157;50.138;14.544;2022-12-18T05:08:21;33.35;;;13.55;;
75576;SDS011;64157;50.138;14.544;2022-12-18T05:10:47;48.03;;;20.00;;
75576;SDS011;64157;50.138;14.544;2022-12-18T05:13:12;21.90;;;14.43;;
75576;SDS011;64157;50.138;14.544;2022-12-18T05:15:38;21.58;;;12.52;;
75576;SDS011;64157;50.138;14.544;2022-12-18T05:18:04;38.90;;;17.08;;
75576;SDS011;64157;50.138;14.544;2022-12-18T05:20:29;40.17;;;19.05;;
75576;SDS011;64157;50.138;14.544;2022-12-18T05:22:55;47.17;;;17.55;;
75576;SDS011;64157;50.138;14.544;2022-12-18T05:25:21;48.38;;;20.45;;
75576;SDS011;64157;50.138;14.544;2022-12-18T05:27:47;21.42;;;11.05;;
75576;SDS011;64157;50.138;14.544;2022-12-18T05:30:13;37.40;;;15.95;;
75576;SDS011;64157;50.138;14.544;2022-12-18T05:32:40;32.03;;;14.38;;
75576;SDS011;64157;50.138;14.544;2022-12-18T05:35:06;30.60;;;12.82;;
75576;SDS011;64157;50.138;14.544;2022-12-18T05:37:33;43.20;;;17.08;;
75576;SDS011;64157;50.138;14.544;2022-12-18T05:39:59;37.20;;;14.68;;
75576;SDS011;64157;50.138;14.544;2022-12-18T05:42:24;32.47;;;14.05;;
75576;SDS011;64157;50.138;14.544;2022-12-18T05:44:50;29.65;;;11.10;;
75576;SDS011;64157;50.138;14.544;2022-12-18T05:47:15;30.40;;;13.20;;
75576;SDS011;64157;50.138;14.544;2022-12-18T05:49:41;31.65;;;14.52;;
75576;SDS011;64157;50.138;14.544;2022-12-18T05:52:07;16.65;;;9.90;;
75576;SDS011;64157;50.138;14.544;2022-12-18T05:54:32;29.02;;;11.77;;
75576;SDS011;64157;50.138;14.544;2022-12-18T05:56:57;45.55;;;17.00;;
75576;SDS011;64157;50.138;14.544;2022-12-18T05:59:23;46.17;;;14.98;;
75576;SDS011;64157;50.138;14.544;2022-12-18T06:01:49;35.90;;;14.48;;
75576;SDS011;64157;50.138;14.544;2022-12-18T06:04:14;38.00;;;16.42;;
75576;SDS011;64157;50.138;14.544;2022-12-18T06:06:40;25.90;;;10.30;;
75576;SDS011;64157;50.138;14.544;2022-12-18T06:09:05;29.42;;;14.95;;
75576;SDS011;64157;50.138;14.544;2022-12-18T06:11:33;39.22;;;15.05;;
75576;SDS011;64157;50.138;14.544;2022-12-18T06:13:59;23.27;;;11.32;;
75576;SDS011;64157;50.138;14.544;2022-12-18T06:16:26;56.63;;;18.38;;
75576;SDS011;64157;50.138;14.544;2022-12-18T06:18:52;51.13;;;16.58;;
75576;SDS011;64157;50.138;14.544;2022-12-18T06:21:18;57.22;;;18.35;;
75576;SDS011;64157;50.138;14.544;2022-12-18T06:23:43;49.42;;;17.63;;
75576;SDS011;64157;50.138;14.544;2022-12-18T06:26:10;49.97;;;17.95;;
75576;SDS011;64157;50.138;14.544;2022-12-18T06:28:36;63.33;;;18.98;;
75576;SDS011;64157;50.138;14.544;2022-12-18T06:31:03;41.78;;;12.95;;
75576;SDS011;64157;50.138;14.544;2022-12-18T06:33:29;59.95;;;17.35;;
75576;SDS011;64157;50.138;14.544;2022-12-18T06:36:05;27.52;;;12.48;;
75576;SDS011;64157;50.138;14.544;2022-12-18T06:38:36;11.82;;;6.97;;
75576;SDS011;64157;50.138;14.544;2022-12-18T06:41:07;40.20;;;14.85;;
75576;SDS011;64157;50.138;14.544;2022-12-18T06:43:34;46.35;;;13.93;;
75576;SDS011;64157;50.138;14.544;2022-12-18T06:46:00;17.25;;;7.15;;
75576;SDS011;64157;50.138;14.544;2022-12-18T06:48:26;34.47;;;12.18;;
75576;SDS011;64157;50.138;14.544;2022-12-18T06:50:53;19.77;;;8.23;;
75576;SDS011;64157;50.138;14.544;2022-12-18T06:53:18;45.50;;;14.02;;
75576;SDS011;64157;50.138;14.544;2022-12-18T06:55:44;35.60;;;13.75;;
75576;SDS011;64157;50.138;14.544;2022-12-18T06:58:09;24.50;;;9.65;;
75576;SDS011;64157;50.138;14.544;2022-12-18T07:00:35;20.38;;;10.15;;
75576;SDS011;64157;50.138;14.544;2022-12-18T07:03:00;35.95;;;9.80;;
75576;SDS011;64157;50.138;14.544;2022-12-18T07:05:26;27.33;;;11.30;;
75576;SDS011;64157;50.138;14.544;2022-12-18T07:07:51;36.88;;;12.43;;
75576;SDS011;64157;50.138;14.544;2022-12-18T07:10:17;29.38;;;11.10;;
75576;SDS011;64157;50.138;14.544;2022-12-18T07:12:45;39.25;;;13.00;;
75576;SDS011;64157;50.138;14.544;2022-12-18T07:15:18;52.20;;;14.88;;
75576;SDS011;64157;50.138;14.544;2022-12-18T07:17:44;58.70;;;16.70;;
75576;SDS011;64157;50.138;14.544;2022-12-18T07:20:13;38.40;;;14.45;;
75576;SDS011;64157;50.138;14.544;2022-12-18T07:22:40;50.58;;;16.40;;
75576;SDS011;64157;50.138;14.544;2022-12-18T07:25:06;37.13;;;11.88;;
75576;SDS011;64157;50.138;14.544;2022-12-18T07:27:32;43.45;;;16.65;;
75576;SDS011;64157;50.138;14.544;2022-12-18T07:30:00;20.20;;;11.95;;
75576;SDS011;64157;50.138;14.544;2022-12-18T07:32:25;18.33;;;9.98;;
75576;SDS011;64157;50.138;14.544;2022-12-18T07:34:51;37.92;;;14.30;;
75576;SDS011;64157;50.138;14.544;2022-12-18T07:37:16;17.55;;;9.57;;
75576;SDS011;64157;50.138;14.544;2022-12-18T07:39:42;36.55;;;12.65;;
75576;SDS011;64157;50.138;14.544;2022-12-18T07:42:07;43.90;;;13.68;;
75576;SDS011;64157;50.138;14.544;2022-12-18T07:44:51;37.58;;;11.70;;
75576;SDS011;64157;50.138;14.544;2022-12-18T07:47:17;32.50;;;10.95;;
75576;SDS011;64157;50.138;14.544;2022-12-18T07:49:42;22.25;;;9.63;;
75576;SDS011;64157;50.138;14.544;2022-12-18T07:52:07;10.70;;;6.82;;
75576;SDS011;64157;50.138;14.544;2022-12-18T07:54:34;17.52;;;7.85;;
75576;SDS011;64157;50.138;14.544;2022-12-18T07:57:00;50.00;;;15.00;;
75576;SDS011;64157;50.138;14.544;2022-12-18T07:59:25;38.67;;;13.60;;
75576;SDS011;64157;50.138;14.544;2022-12-18T08:01:51;25.25;;;10.82;;
75576;SDS011;64157;50.138;14.544;2022-12-18T08:04:16;24.60;;;9.45;;
75576;SDS011;64157;50.138;14.544;2022-12-18T08:06:42;21.80;;;9.98;;
75576;SDS011;64157;50.138;14.544;2022-12-18T08:09:09;31.95;;;11.85;;
75576;SDS011;64157;50.138;14.544;2022-12-18T08:11:35;36.35;;;10.93;;
75576;SDS011;64157;50.138;14.544;2022-12-18T08:14:00;27.30;;;10.50;;
75576;SDS011;64157;50.138;14.544;2022-12-18T08:16:26;26.73;;;10.27;;
75576;SDS011;64157;50.138;14.544;2022-12-18T08:18:52;44.33;;;15.15;;
75576;SDS011;64157;50.138;14.544;2022-12-18T08:21:19;30.88;;;12.50;;
75576;SDS011;64157;50.138;14.544;2022-12-18T08:23:48;22.92;;;11.13;;
75576;SDS011;64157;50.138;14.544;2022-12-18T08:26:14;34.08;;;15.18;;
75576;SDS011;64157;50.138;14.544;2022-12-18T08:28:41;26.70;;;11.70;;
75576;SDS011;64157;50.138;14.544;2022-12-18T08:31:07;20.50;;;8.93;;
75576;SDS011;64157;50.138;14.544;2022-12-18T08:33:33;38.15;;;14.52;;
75576;SDS011;64157;50.138;14.544;2022-12-18T08:36:00;20.52;;;9.82;;
75576;SDS011;64157;50.138;14.544;2022-12-18T08:38:28;25.25;;;10.98;;
75576;SDS011;64157;50.138;14.544;2022-12-18T08:40:58;21.02;;;9.60;;
75576;SDS011;64157;50.138;14.544;2022-12-18T08:43:27;28.35;;;11.07;;
75576;SDS011;64157;50.138;14.544;2022-12-18T08:46:11;12.93;;;7.95;;
75576;SDS011;64157;50.138;14.544;2022-12-18T08:48:37;15.40;;;7.72;;
75576;SDS011;64157;50.138;14.544;2022-12-18T08:51:03;30.77;;;13.35;;
75576;SDS011;64157;50.138;14.544;2022-12-18T08:53:29;22.65;;;10.25;;
75576;SDS011;64157;50.138;14.544;2022-12-18T08:55:55;15.73;;;8.32;;
75576;SDS011;64157;50.138;14.544;2022-12-18T08:58:21;32.85;;;12.90;;
75576;SDS011;64157;50.138;14.544;2022-12-18T09:00:47;19.67;;;10.07;;
75576;SDS011;64157;50.138;14.544;2022-12-18T09:03:13;28.52;;;11.13;;
75576;SDS011;64157;50.138;14.544;2022-12-18T09:05:39;18.38;;;7.75;;
75576;SDS011;64157;50.138;14.544;2022-12-18T09:08:05;35.20;;;11.70;;
75576;SDS011;64157;50.138;14.544;2022-12-18T09:10:30;21.63;;;9.85;;
75576;SDS011;64157;50.138;14.544;2022-12-18T09:12:56;26.55;;;13.63;;
75576;SDS011;64157;50.138;14.544;2022-12-18T09:15:22;34.22;;;12.68;;
75576;SDS011;64157;50.138;14.544;2022-12-18T09:17:47;30.90;;;12.32;;
75576;SDS011;64157;50.138;14.544;2022-12-18T09:20:13;29.42;;;13.20;;
75576;SDS011;64157;50.138;14.544;2022-12-18T09:22:38;23.60;;;10.60;;
75576;SDS011;64157;50.138;14.544;2022-12-18T09:25:04;30.13;;;11.95;;
75576;SDS011;64157;50.138;14.544;2022-12-18T09:27:32;40.42;;;10.75;;
75576;SDS011;64157;50.138;14.544;2022-12-18T09:29:58;29.35;;;10.20;;
75576;SDS011;64157;50.138;14.544;2022-12-18T09:32:24;36.65;;;14.90;;
75576;SDS011;64157;50.138;14.544;2022-12-18T09:34:49;27.65;;;12.52;;
75576;SDS011;64157;50.138;14.544;2022-12-18T09:37:15;31.45;;;14.93;;
75576;SDS011;64157;50.138;14.544;2022-12-18T09:39:43;34.13;;;14.75;;
75576;SDS011;64157;50.138;14.544;2022-12-18T09:42:15;31.48;;;13.32;;
75576;SDS011;64157;50.138;14.544;2022-12-18T09:44:56;23.08;;;10.15;;
75576;SDS011;64157;50.138;14.544;2022-12-18T09:47:36;42.40;;;15.65;;
75576;SDS011;64157;50.138;14.544;2022-12-18T09:50:26;32.33;;;13.57;;
75576;SDS011;64157;50.138;14.544;2022-12-18T09:52:56;28.55;;;12.50;;
75576;SDS011;64157;50.138;14.544;2022-12-18T09:55:40;21.23;;;9.10;;
75576;SDS011;64157;50.138;14.544;2022-12-18T10:00:35;38.58;;;13.52;;
75576;SDS011;64157;50.138;14.544;2022-12-18T10:03:03;21.52;;;8.60;;
75576;SDS011;64157;50.138;14.544;2022-12-18T10:10:51;38.15;;;14.27;;
75576;SDS011;64157;50.138;14.544;2022-12-18T10:13:21;24.33;;;8.38;;
75576;SDS011;64157;50.138;14.544;2022-12-18T10:27:24;43.65;;;15.75;;
75576;SDS011;64157;50.138;14.544;2022-12-18T10:29:51;48.50;;;16.73;;
75576;SDS011;64157;50.138;14.544;2022-12-18T10:32:20;45.60;;;15.10;;
75576;SDS011;64157;50.138;14.544;2022-12-18T10:34:48;29.20;;;10.93;;
75576;SDS011;64157;50.138;14.544;2022-12-18T10:37:17;43.25;;;17.50;;
75576;SDS011;64157;50.138;14.544;2022-12-18T10:39:44;39.08;;;15.57;;
75576;SDS011;64157;50.138;14.544;2022-12-18T10:42:19;42.20;;;14.82;;
75576;SDS011;64157;50.138;14.544;2022-12-18T10:44:44;33.45;;;14.88;;
75576;SDS011;64157;50.138;14.544;2022-12-18T10:47:12;20.75;;;9.18;;
75576;SDS011;64157;50.138;14.544;2022-12-18T10:49:47;31.45;;;13.93;;
75576;SDS011;64157;50.138;14.544;2022-12-18T10:52:18;58.70;;;21.00;;
75576;SDS011;64157;50.138;14.544;2022-12-18T10:54:59;50.30;;;17.02;;
75576;SDS011;64157;50.138;14.544;2022-12-18T10:57:35;23.17;;;10.63;;
75576;SDS011;64157;50.138;14.544;2022-12-18T11:02:50;44.78;;;16.67;;
75576;SDS011;64157;50.138;14.544;2022-12-18T11:05:23;48.00;;;17.58;;
75576;SDS011;64157;50.138;14.544;2022-12-18T11:07:51;23.02;;;10.63;;
75576;SDS011;64157;50.138;14.544;2022-12-18T11:10:19;57.42;;;20.35;;
75576;SDS011;64157;50.138;14.544;2022-12-18T11:12:51;43.42;;;17.20;;
75576;SDS011;64157;50.138;14.544;2022-12-18T11:15:19;34.67;;;14.07;;
75576;SDS011;64157;50.138;14.544;2022-12-18T11:17:49;43.95;;;16.63;;
75576;SDS011;64157;50.138;14.544;2022-12-18T11:23:03;56.08;;;18.75;;
75576;SDS011;64157;50.138;14.544;2022-12-18T11:25:37;53.97;;;17.75;;
75576;SDS011;64157;50.138;14.544;2022-12-18T11:33:06;34.88;;;13.00;;
75576;SDS011;64157;50.138;14.544;2022-12-18T11:35:42;22.00;;;9.40;;
75576;SDS011;64157;50.138;14.544;2022-12-18T11:38:23;43.15;;;15.32;;
75576;SDS011;64157;50.138;14.544;2022-12-18T11:44:11;32.80;;;11.93;;
75576;SDS011;64157;50.138;14.544;2022-12-18T11:46:47;55.30;;;18.15;;
75576;SDS011;64157;50.138;14.544;2022-12-18T11:49:22;29.30;;;11.07;;
75576;SDS011;64157;50.138;14.544;2022-12-18T11:52:19;36.85;;;12.70;;
75576;SDS011;64157;50.138;14.544;2022-12-18T11:54:55;35.63;;;14.02;;
75576;SDS011;64157;50.138;14.544;2022-12-18T12:00:31;34.97;;;11.82;;
75576;SDS011;64157;50.138;14.544;2022-12-18T12:03:12;36.60;;;11.55;;
75576;SDS011;64157;50.138;14.544;2022-12-18T12:23:26;14.90;;;7.15;;
75576;SDS011;64157;50.138;14.544;2022-12-18T12:26:01;24.05;;;10.77;;
75576;SDS011;64157;50.138;14.544;2022-12-18T12:28:37;30.67;;;12.48;;
75576;SDS011;64157;50.138;14.544;2022-12-18T12:34:04;24.23;;;9.40;;
75576;SDS011;64157;50.138;14.544;2022-12-18T12:39:58;15.85;;;10.43;;
75576;SDS011;64157;50.138;14.544;2022-12-18T12:48:17;10.18;;;8.38;;
75576;SDS011;64157;50.138;14.544;2022-12-18T12:51:00;16.67;;;8.63;;
75576;SDS011;64157;50.138;14.544;2022-12-18T12:53:30;9.95;;;8.18;;
75576;SDS011;64157;50.138;14.544;2022-12-18T12:56:00;12.85;;;8.98;;
75576;SDS011;64157;50.138;14.544;2022-12-18T12:58:43;21.17;;;8.88;;
75576;SDS011;64157;50.138;14.544;2022-12-18T13:10:37;43.95;;;15.02;;
75576;SDS011;64157;50.138;14.544;2022-12-18T13:22:53;26.80;;;10.25;;
75576;SDS011;64157;50.138;14.544;2022-12-18T13:32:20;21.70;;;10.93;;
75576;SDS011;64157;50.138;14.544;2022-12-18T13:34:48;37.60;;;12.20;;
75576;SDS011;64157;50.138;14.544;2022-12-18T13:39:57;31.00;;;12.20;;
75576;SDS011;64157;50.138;14.544;2022-12-18T13:46:16;37.33;;;11.70;;
75576;SDS011;64157;50.138;14.544;2022-12-18T13:48:21;15.23;;;8.25;;
75576;SDS011;64157;50.138;14.544;2022-12-18T13:51:10;21.27;;;11.07;;
75576;SDS011;64157;50.138;14.544;2022-12-18T13:53:43;32.50;;;12.27;;
75576;SDS011;64157;50.138;14.544;2022-12-18T13:56:22;24.95;;;9.77;;
75576;SDS011;64157;50.138;14.544;2022-12-18T14:01:41;21.55;;;9.43;;
75576;SDS011;64157;50.138;14.544;2022-12-18T14:04:12;25.13;;;8.90;;
75576;SDS011;64157;50.138;14.544;2022-12-18T14:06:45;21.58;;;9.30;;
75576;SDS011;64157;50.138;14.544;2022-12-18T14:09:15;14.05;;;9.27;;
75576;SDS011;64157;50.138;14.544;2022-12-18T14:11:46;32.70;;;12.05;;
75576;SDS011;64157;50.138;14.544;2022-12-18T14:14:14;13.13;;;7.65;;
75576;SDS011;64157;50.138;14.544;2022-12-18T14:16:41;20.52;;;10.10;;
75576;SDS011;64157;50.138;14.544;2022-12-18T14:19:16;28.65;;;11.63;;
75576;SDS011;64157;50.138;14.544;2022-12-18T14:21:49;16.73;;;10.20;;
75576;SDS011;64157;50.138;14.544;2022-12-18T14:24:16;36.78;;;16.30;;
75576;SDS011;64157;50.138;14.544;2022-12-18T14:26:44;42.40;;;15.20;;
75576;SDS011;64157;50.138;14.544;2022-12-18T14:29:21;17.23;;;9.23;;
75576;SDS011;64157;50.138;14.544;2022-12-18T14:32:03;44.38;;;14.57;;
75576;SDS011;64157;50.138;14.544;2022-12-18T14:34:42;17.25;;;8.88;;
75576;SDS011;64157;50.138;14.544;2022-12-18T14:37:23;25.00;;;10.32;;
75576;SDS011;64157;50.138;14.544;2022-12-18T14:42:30;18.42;;;10.77;;
75576;SDS011;64157;50.138;14.544;2022-12-18T14:48:05;30.17;;;12.98;;
75576;SDS011;64157;50.138;14.544;2022-12-18T14:50:40;20.70;;;11.68;;
75576;SDS011;64157;50.138;14.544;2022-12-18T14:53:06;32.65;;;11.63;;
75576;SDS011;64157;50.138;14.544;2022-12-18T14:56:02;15.63;;;9.20;;
75576;SDS011;64157;50.138;14.544;2022-12-18T14:58:29;29.80;;;13.85;;
75576;SDS011;64157;50.138;14.544;2022-12-18T15:00:54;42.17;;;12.77;;
75576;SDS011;64157;50.138;14.544;2022-12-18T15:03:20;35.80;;;14.00;;
75576;SDS011;64157;50.138;14.544;2022-12-18T15:05:46;37.58;;;16.58;;
75576;SDS011;64157;50.138;14.544;2022-12-18T15:11:01;33.97;;;13.90;;
75576;SDS011;64157;50.138;14.544;2022-12-18T15:13:27;26.17;;;11.85;;
75576;SDS011;64157;50.138;14.544;2022-12-18T15:15:53;24.60;;;12.18;;
75576;SDS011;64157;50.138;14.544;2022-12-18T15:18:22;26.08;;;11.52;;
75576;SDS011;64157;50.138;14.544;2022-12-18T15:20:58;23.40;;;10.82;;
75576;SDS011;64157;50.138;14.544;2022-12-18T15:23:51;16.85;;;7.65;;
75576;SDS011;64157;50.138;14.544;2022-12-18T15:29:24;31.60;;;13.25;;
75576;SDS011;64157;50.138;14.544;2022-12-18T15:32:03;37.28;;;13.88;;
75576;SDS011;64157;50.138;14.544;2022-12-18T15:34:32;13.00;;;6.22;;
75576;SDS011;64157;50.138;14.544;2022-12-18T15:36:59;27.33;;;12.98;;
75576;SDS011;64157;50.138;14.544;2022-12-18T15:39:24;43.85;;;17.55;;
75576;SDS011;64157;50.138;14.544;2022-12-18T15:41:50;12.80;;;7.70;;
75576;SDS011;64157;50.138;14.544;2022-12-18T15:44:35;38.10;;;14.13;;
75576;SDS011;64157;50.138;14.544;2022-12-18T15:47:01;31.73;;;14.68;;
75576;SDS011;64157;50.138;14.544;2022-12-18T15:49:27;28.17;;;14.88;;
75576;SDS011;64157;50.138;14.544;2022-12-18T15:51:57;20.90;;;9.93;;
75576;SDS011;64157;50.138;14.544;2022-12-18T15:54:24;34.30;;;16.27;;
75576;SDS011;64157;50.138;14.544;2022-12-18T15:57:09;32.60;;;13.82;;
75576;SDS011;64157;50.138;14.544;2022-12-18T15:59:48;20.15;;;10.07;;
75576;SDS011;64157;50.138;14.544;2022-12-18T16:02:15;30.02;;;10.98;;
75576;SDS011;64157;50.138;14.544;2022-12-18T16:04:43;16.75;;;11.98;;
75576;SDS011;64157;50.138;14.544;2022-12-18T16:07:11;26.50;;;11.60;;
75576;SDS011;64157;50.138;14.544;2022-12-18T16:09:37;20.58;;;10.85;;
75576;SDS011;64157;50.138;14.544;2022-12-18T16:12:03;33.17;;;17.70;;
75576;SDS011;64157;50.138;14.544;2022-12-18T16:14:30;32.53;;;15.52;;
75576;SDS011;64157;50.138;14.544;2022-12-18T16:16:58;26.10;;;11.25;;
75576;SDS011;64157;50.138;14.544;2022-12-18T16:19:28;45.63;;;19.15;;
75576;SDS011;64157;50.138;14.544;2022-12-18T16:22:17;19.95;;;10.57;;
75576;SDS011;64157;50.138;14.544;2022-12-18T16:24:56;21.73;;;12.10;;
75576;SDS011;64157;50.138;14.544;2022-12-18T16:27:24;32.90;;;16.35;;
75576;SDS011;64157;50.138;14.544;2022-12-18T16:29:53;25.48;;;11.50;;
75576;SDS011;64157;50.138;14.544;2022-12-18T16:32:19;32.95;;;16.08;;
75576;SDS011;64157;50.138;14.544;2022-12-18T16:34:46;18.27;;;11.43;;
75576;SDS011;64157;50.138;14.544;2022-12-18T16:37:12;18.25;;;10.35;;
75576;SDS011;64157;50.138;14.544;2022-12-18T16:43:37;41.00;;;14.90;;
75576;SDS011;64157;50.138;14.544;2022-12-18T16:48:58;16.67;;;8.25;;